Aérodrome :
LOGIN :

S'inscrire | Disclaimer

   EN    FR    IT 

 










Légende :    VFR   VFR Marginal   IFR   IFR Intensif   IFR Très Intensif
Visi : 
Plafond : 
>= 8 km
>= 3000ft
5 à 8 km
1000 à 3000 ft
1500m à 5 km
500 à 1000 ft
800 à 1500m
200 à 500 ft
< 800m
< 200 ft
Symboles :   Orages  Brouillard  Fortes neiges  Fortes précipitations  Vent > 20 kt
SIGMETs :   Divers  Orages  Givrage  Turbulence  Onde Orograph.  Cendres Volcan.







- Altitude de l'aérodrome : 124 ft
- Code IATA : NHT
- Voir les cartes d'approche


EGWU - RAF Northolt

DERNIER METAR :
  • 251450Z 07005KT 8000 HZ SCT015 BKN055 18/15 Q1019 WHT TEMPO 6000 SCT014 GRN

METARs EXPIRÉS :
  • 251432Z 06005KT 6000 HZ SCT014 OVC050 18/15 Q1019 GRN TEMPO FEW014 BKN050 WHT
  • 251350Z 09004KT 6000 HZ FEW012 BKN050 17/15 Q1019 TEMPO 8000
  • 251250Z 05007KT 7000 HZ BKN045 BKN060 17/14 Q1019 TEMPO 8000
  • 251150Z 08005KT 7000 HZ BKN038 BKN050 17/14 Q1019 BECMG 8000

TAF AMD TAF EGWU
Valide du 25 à 15h jusqu'au 26 à 09h UTC


251440Z 2515/2609 06004KT 8000 HZ FEW015 BKN045
PROB40 2515/2521 6000 SCT014
BECMG 2521/2524 4000
BECMG 2600/2603 2500 BR
PROB30 2603/2608 0500 FG VV///
BECMG 2607/2609 5000 HZ
Pas de NOTAMs connus pour ce terrain.



MET'MAP, la Météo Aéronautique d'un coup d'oeil ! - Copyright ORBIFLY Décembre 2007 - Disclaimer

ORBIFLY MET'MAP TEAM :

Programmation & Développement : Alexandra Zaïnal
Conception & Développement : Baudouin d'Aumeries
Co-Programmation & Développement : Marc-Olivier Méhu
Soutien technique & logistique : Manuel Goepfert

Contact : metmap@orbifly.com




SOURCES & CREDITS :

   NOAA